UPDATE Mit 1. Juli wird auf eine neue Wetterseite umgestellt
Wer schon probieren möchte kann unter https://wetter.hildner.at gerne testen
Die Seite befindet sich noch im Aufbau

Es liegt ein Kommunikationsproblem . Gehen Sie direkt zur Website Meteoalarm : www.meteoalarm.eu und überprüfen Sie die Wetterwarnungen..


Rindlberg West Mehr Informationen Rindlberg West


Stuetzi - Rindlberg Ost Mehr Informationen Stuetzi - Rindlberg Ost


Regenradar Mehr Informationen rain snow radar


Sie finden meine Wetter-Infos auch auf:

Weather Underground

AWEKAS



METAR-Meldungen aus der Umgebung

   
LOWL - Linz
Aktualisierung: 23-02-2024 00:20
Stark bewölkt  
Stark bewölkt  
   Wind: variiert 1.9 km/h
Wind: variiert 1.9 km/h
Temperatur: 6°C
Taupunkt: 5°C
Luftfeuchte: 93%
Luftdruck: 996 hPa
Wolken: Stark bewölkt
Sichtbarkeit: Mehr als 10 km
Bewölkung: leicht bewölkt 6000 ft,
Stark bewölkt 7000 ft
LOWL 222320Z AUTO VRB01KT 9999 FEW060 BKN070 06/05 Q0996
LOWW - Vienna
Aktualisierung: 23-02-2024 00:20
Leichter Niederschlag möglich, Teilweise bewölkt  
Leichter Niederschlag möglich, Teilweise bewölkt  
   Wind: SSO 14.8 km/h
Wind: SSO 14.8 km/h
Temperatur: 9°C
Gefühlt: 7°C
Taupunkt: 4°C
Luftfeuchte: 71%
Luftdruck: 996 hPa
Wolken: Teilweise bewölkt
Sichtbarkeit: Mehr als 10 km
Bewölkung: Teilweise bewölkt
LOWW 222320Z 15008KT 9999 -RA NSC 09/04 Q0996 NOSIG
 

Script entwickelt von  Saratoga-weather.org Angepasst für das Template von  Weerstation Leuven